createdAt,value
2023-03-03T00:03:35.349Z,51.37
2023-03-03T00:08:41.536Z,48.13
2023-03-03T00:13:50.606Z,52.57
2023-03-03T00:18:55.377Z,44.47
2023-03-03T00:24:19.470Z,48.40
2023-03-03T00:29:32.161Z,49.33
2023-03-03T00:34:37.990Z,43.80
2023-03-03T00:39:42.760Z,53.30
2023-03-03T00:44:47.528Z,47.90
2023-03-03T00:49:51.844Z,55.80
2023-03-03T00:54:57.642Z,46.13
2023-03-03T01:00:01.446Z,50.03
2023-03-03T01:05:07.561Z,46.20
2023-03-03T01:10:13.541Z,40.50
2023-03-03T01:15:22.229Z,47.07
2023-03-03T01:20:25.613Z,45.97
2023-03-03T01:25:30.638Z,54.83
2023-03-03T01:30:34.008Z,51.73
2023-03-03T01:35:37.699Z,50.67
2023-03-03T01:40:42.852Z,50.27
2023-03-03T01:46:36.927Z,56.23
2023-03-03T01:51:46.532Z,45.47
2023-03-03T01:56:54.388Z,52.40
2023-03-03T02:01:57.918Z,52.70
2023-03-03T02:07:07.057Z,46.70
2023-03-03T02:12:18.330Z,48.43
2023-03-03T02:17:21.699Z,38.03
2023-03-03T02:22:32.628Z,43.27
2023-03-03T02:27:38.537Z,45.83
2023-03-03T02:32:41.915Z,45.03
2023-03-03T02:37:45.302Z,49.27
2023-03-03T02:42:51.745Z,47.03
2023-03-03T02:47:54.999Z,44.27
2023-03-03T02:52:58.276Z,44.53
2023-03-03T02:58:03.009Z,46.83
2023-03-03T03:03:06.373Z,53.07
2023-03-03T03:08:09.634Z,48.20
2023-03-03T03:13:14.409Z,56.73
2023-03-03T03:18:17.930Z,54.03
2023-03-03T03:23:22.049Z,50.83
2023-03-03T03:28:26.791Z,50.10
2023-03-03T03:33:30.113Z,58.27
2023-03-03T03:38:36.765Z,51.93
2023-03-03T03:43:41.611Z,57.43
2023-03-03T03:48:45.673Z,49.17
2023-03-03T03:53:49.004Z,59.60
2023-03-03T03:58:53.743Z,55.30
2023-03-03T04:03:57.085Z,56.27
2023-03-03T04:09:00.502Z,52.27
2023-03-03T04:14:06.455Z,54.87
2023-03-03T04:19:09.720Z,49.90
2023-03-03T04:24:13.140Z,54.73
2023-03-03T04:29:17.919Z,59.13
2023-03-03T04:34:21.250Z,59.63
2023-03-03T04:39:24.662Z,55.47
2023-03-03T04:44:29.306Z,50.97
2023-03-03T04:49:33.598Z,45.97
2023-03-03T04:54:36.908Z,54.90
2023-03-03T04:59:41.795Z,51.23
2023-03-03T05:04:45.315Z,49.10
2023-03-03T05:09:48.611Z,51.13
2023-03-03T05:14:53.253Z,49.23
2023-03-03T05:19:57.502Z,43.77
2023-03-03T05:25:00.766Z,51.60
2023-03-03T05:30:08.670Z,50.00
2023-03-03T05:35:13.134Z,46.03
2023-03-03T05:40:16.719Z,52.73
2023-03-03T05:45:23.165Z,51.47
2023-03-03T05:50:27.421Z,48.57
2023-03-03T05:55:30.756Z,47.20
2023-03-03T06:00:35.668Z,55.20
2023-03-03T06:05:38.972Z,50.17
2023-03-03T06:10:42.455Z,44.60
2023-03-03T06:15:47.300Z,49.57
2023-03-03T06:20:54.035Z,47.63
2023-03-03T06:25:57.440Z,53.97
2023-03-03T06:31:02.167Z,53.30
2023-03-03T06:36:06.386Z,48.03
2023-03-03T06:41:09.768Z,48.17
2023-03-03T06:46:23.242Z,54.80
2023-03-03T06:51:32.380Z,49.23
2023-03-03T06:56:50.660Z,58.93
2023-03-03T07:01:55.547Z,46.23
2023-03-03T07:07:00.332Z,53.10
2023-03-03T07:12:08.341Z,54.80
2023-03-03T07:17:17.378Z,48.40
2023-03-03T07:22:24.830Z,49.63
2023-03-03T07:27:30.290Z,44.83
2023-03-03T07:32:43.173Z,50.93
2023-03-03T07:37:46.696Z,45.83
2023-03-03T07:42:50.845Z,53.67
2023-03-03T07:48:09.511Z,51.57
2023-03-03T07:53:28.040Z,47.67
2023-03-03T07:58:38.840Z,41.83
2023-03-03T08:03:51.286Z,47.60
2023-03-03T08:08:54.554Z,51.20
2023-03-03T08:13:58.193Z,45.97
2023-03-03T08:19:04.676Z,50.08
2023-03-03T08:24:13.836Z,52.95
2023-03-03T08:29:17.097Z,49.72
2023-03-03T08:34:22.772Z,48.22
2023-03-03T08:39:26.176Z,51.78
2023-03-03T08:44:29.522Z,42.55
2023-03-03T08:49:35.105Z,41.78
2023-03-03T08:54:38.677Z,52.83
2023-03-03T08:59:43.623Z,45.63
2023-03-03T09:04:48.424Z,44.45
2023-03-03T09:09:53.059Z,49.53
2023-03-03T09:14:59.695Z,43.65
2023-03-03T09:20:24.209Z,39.45
2023-03-03T09:25:37.145Z,35.50
2023-03-03T09:30:44.312Z,47.10
2023-03-03T09:35:54.802Z,41.88
2023-03-03T09:41:31.655Z,44.80
2023-03-03T09:46:46.925Z,35.83
2023-03-03T09:52:08.617Z,41.47
2023-03-03T09:57:20.591Z,35.92
2023-03-03T10:02:44.327Z,39.42
2023-03-03T10:08:01.945Z,43.92
2023-03-03T10:13:18.824Z,37.10
2023-03-03T10:18:33.868Z,39.45
2023-03-03T10:23:53.158Z,44.10
2023-03-03T10:29:26.652Z,37.72
2023-03-03T10:34:54.584Z,41.60
2023-03-03T10:40:16.418Z,40.67
2023-03-03T10:45:46.784Z,35.17
2023-03-03T10:50:58.054Z,38.35
2023-03-03T10:56:26.518Z,39.42
2023-03-03T11:01:47.145Z,37.08
2023-03-03T11:06:59.909Z,39.33
2023-03-03T11:12:21.482Z,40.45
2023-03-03T11:17:37.319Z,34.40
2023-03-03T11:22:50.336Z,39.72
2023-03-03T11:28:24.782Z,43.65
2023-03-03T11:33:37.673Z,44.53
2023-03-03T11:38:50.071Z,44.47
2023-03-03T11:44:01.804Z,41.25
2023-03-03T11:49:09.428Z,39.78
2023-03-03T11:54:20.935Z,40.55
2023-03-03T11:59:55.674Z,34.97
2023-03-03T12:05:06.067Z,44.55
2023-03-03T12:10:19.207Z,39.40
2023-03-03T12:15:34.590Z,38.40
2023-03-03T12:20:47.576Z,39.15
2023-03-03T12:25:58.563Z,41.40
2023-03-03T12:31:22.871Z,41.97
2023-03-03T12:36:53.064Z,46.80
2023-03-03T12:42:07.047Z,38.97
2023-03-03T12:47:23.240Z,39.00
2023-03-03T12:52:34.562Z,35.83
2023-03-03T12:57:46.807Z,33.42
2023-03-03T13:03:03.378Z,35.50
2023-03-03T13:08:34.699Z,40.28
2023-03-03T13:13:45.627Z,41.40
2023-03-03T13:19:00.721Z,41.40
2023-03-03T13:24:12.304Z,36.95
2023-03-03T13:29:22.299Z,37.00
2023-03-03T13:34:38.651Z,34.83
2023-03-03T13:39:54.830Z,33.00
2023-03-03T13:44:58.967Z,35.85
2023-03-03T13:50:11.604Z,38.20
2023-03-03T13:55:28.397Z,31.58
2023-03-03T14:00:45.605Z,34.20
2023-03-03T14:05:51.604Z,35.00
2023-03-03T14:11:09.480Z,30.55
2023-03-03T14:16:20.103Z,38.35
2023-03-03T14:21:31.031Z,32.75
2023-03-03T14:26:47.765Z,33.05
2023-03-03T14:31:52.136Z,35.20
2023-03-03T14:37:13.083Z,38.90
2023-03-03T14:42:32.415Z,47.22
2023-03-03T14:47:40.508Z,46.30
2023-03-03T14:52:45.236Z,37.78
2023-03-03T14:57:48.850Z,39.13
2023-03-03T15:03:04.734Z,41.92
2023-03-03T15:08:20.766Z,37.95
2023-03-03T15:13:34.087Z,39.67
2023-03-03T15:18:57.498Z,37.17
2023-03-03T15:24:06.759Z,34.38
2023-03-03T15:29:22.465Z,33.42
2023-03-03T15:34:34.830Z,35.83
2023-03-03T15:39:49.113Z,33.63
2023-03-03T15:45:01.244Z,37.72
2023-03-03T15:50:27.176Z,31.40
2023-03-03T15:55:59.611Z,39.58
2023-03-03T16:01:11.455Z,32.90
2023-03-03T16:06:20.202Z,29.30
2023-03-03T16:11:33.005Z,30.08
2023-03-03T16:16:44.669Z,42.45
2023-03-03T16:22:18.673Z,32.33
2023-03-03T16:27:31.533Z,35.25
2023-03-03T16:32:41.684Z,31.63
2023-03-03T16:37:59.775Z,27.80
2023-03-03T16:43:14.085Z,33.25
2023-03-03T16:48:38.186Z,37.10
2023-03-03T16:53:55.328Z,33.15
2023-03-03T16:59:30.618Z,27.25
2023-03-03T17:04:41.289Z,41.42
2023-03-03T17:10:04.570Z,28.65
2023-03-03T17:15:30.169Z,29.20
2023-03-03T17:20:41.110Z,29.23
2023-03-03T17:25:55.201Z,26.35
2023-03-03T17:31:07.512Z,29.17
2023-03-03T17:36:29.574Z,32.17
2023-03-03T17:41:42.893Z,24.92
2023-03-03T17:46:51.773Z,28.53
2023-03-03T17:52:28.653Z,27.50
2023-03-03T17:57:48.232Z,32.73
2023-03-03T18:03:34.163Z,22.07
2023-03-03T18:08:50.522Z,32.90
2023-03-03T18:14:28.554Z,32.13
2023-03-03T18:20:01.372Z,30.03
2023-03-03T18:25:12.063Z,26.07
2023-03-03T18:30:35.384Z,33.50
2023-03-03T18:35:40.940Z,34.23
2023-03-03T18:40:55.218Z,36.93
2023-03-03T18:45:58.633Z,39.07
2023-03-03T18:51:23.740Z,28.47
2023-03-03T18:56:45.366Z,36.67
2023-03-03T19:01:51.904Z,32.30
2023-03-03T19:07:26.607Z,28.53
2023-03-03T19:12:51.890Z,33.80
2023-03-03T19:17:57.384Z,28.60
2023-03-03T19:23:06.110Z,40.13
2023-03-03T19:28:38.011Z,42.67
2023-03-03T19:33:50.937Z,32.60
2023-03-03T19:39:15.852Z,31.53
2023-03-03T19:44:49.945Z,33.37
2023-03-03T19:50:06.746Z,32.03
2023-03-03T19:55:35.954Z,35.10
2023-03-03T20:00:44.061Z,37.60
2023-03-03T20:05:53.503Z,33.57
2023-03-03T20:11:01.547Z,32.60
2023-03-03T20:16:21.947Z,37.73
2023-03-03T20:21:33.526Z,48.03
2023-03-03T20:26:46.153Z,46.30
2023-03-03T20:32:00.336Z,40.93
2023-03-03T20:37:10.269Z,39.70
2023-03-03T20:42:27.480Z,43.67
2023-03-03T20:47:45.068Z,49.87
2023-03-03T20:53:07.848Z,50.03
2023-03-03T20:58:28.095Z,44.10
2023-03-03T21:03:45.195Z,39.77
2023-03-03T21:08:59.568Z,51.60
2023-03-03T21:14:17.835Z,51.87
2023-03-03T21:19:29.807Z,45.23
2023-03-03T21:24:57.354Z,48.53
2023-03-03T21:30:16.386Z,46.80
2023-03-03T21:35:26.091Z,44.77
2023-03-03T21:41:14.065Z,53.10
2023-03-03T21:46:28.389Z,44.97
2023-03-03T21:51:39.585Z,46.27
2023-03-03T21:56:44.871Z,48.30
2023-03-03T22:01:49.265Z,44.83
2023-03-03T22:06:59.746Z,49.60
2023-03-03T22:12:07.775Z,39.40
2023-03-03T22:17:11.459Z,45.33
2023-03-03T22:22:14.811Z,42.03
2023-03-03T22:27:20.849Z,49.87
2023-03-03T22:32:24.198Z,47.37
2023-03-03T22:37:27.562Z,42.60
2023-03-03T22:42:32.195Z,54.37
2023-03-03T22:47:35.543Z,53.20
2023-03-03T22:52:38.891Z,46.67
2023-03-03T22:57:43.587Z,44.27
2023-03-03T23:02:47.033Z,53.63
2023-03-03T23:07:50.486Z,43.97
2023-03-03T23:12:55.272Z,48.13
2023-03-03T23:17:58.666Z,45.03
2023-03-03T23:23:02.191Z,52.57
2023-03-03T23:28:07.652Z,48.90
2023-03-03T23:33:10.930Z,50.40
2023-03-03T23:38:17.798Z,54.90
2023-03-03T23:43:23.471Z,50.37
2023-03-03T23:48:26.803Z,46.63
2023-03-03T23:53:30.094Z,49.03
2023-03-03T23:58:34.872Z,47.60
